createdAt,value
2019-05-25T00:00:55.856Z,2.10
2019-05-25T00:03:25.256Z,2.40
2019-05-25T00:05:54.671Z,2.95
2019-05-25T00:08:24.080Z,2.50
2019-05-25T00:10:53.442Z,2.95
2019-05-25T00:13:23.948Z,2.77
2019-05-25T00:15:56.075Z,2.37
2019-05-25T00:18:25.415Z,2.95
2019-05-25T00:20:54.784Z,2.22
2019-05-25T00:23:24.140Z,3.20
2019-05-25T00:25:53.529Z,1.95
2019-05-25T00:28:22.977Z,2.72
2019-05-25T00:30:52.392Z,3.37
2019-05-25T00:33:21.827Z,2.67
2019-05-25T00:35:51.300Z,2.35
2019-05-25T00:38:20.808Z,3.40
2019-05-25T00:40:51.251Z,2.70
2019-05-25T00:43:20.612Z,3.35
2019-05-25T00:45:50.032Z,3.65
2019-05-25T00:48:19.412Z,3.13
2019-05-25T00:50:48.807Z,3.20
2019-05-25T00:53:18.179Z,3.10
2019-05-25T00:55:47.564Z,2.52
2019-05-25T00:58:16.903Z,3.70
2019-05-25T01:00:46.283Z,3.05
2019-05-25T01:03:15.675Z,3.80
2019-05-25T01:05:45.085Z,4.20
2019-05-25T01:08:16.169Z,2.75
2019-05-25T01:10:45.550Z,3.23
2019-05-25T01:13:14.972Z,3.33
2019-05-25T01:15:44.440Z,3.70
2019-05-25T01:18:13.791Z,3.80
2019-05-25T01:20:43.527Z,3.70
2019-05-25T01:23:12.923Z,3.77
2019-05-25T01:25:42.626Z,3.83
2019-05-25T01:28:12.128Z,3.33
2019-05-25T01:30:41.599Z,3.67
2019-05-25T01:33:10.970Z,3.57
2019-05-25T01:35:40.408Z,3.98
2019-05-25T01:38:10.932Z,3.45
2019-05-25T01:40:40.331Z,3.77
2019-05-25T01:43:09.716Z,3.47
2019-05-25T01:45:39.079Z,3.70
2019-05-25T01:48:08.457Z,3.60
2019-05-25T01:50:37.841Z,3.60
2019-05-25T01:53:07.208Z,4.47
2019-05-25T01:55:36.560Z,3.58
2019-05-25T01:58:06.043Z,4.03
2019-05-25T02:00:35.408Z,3.95
2019-05-25T02:03:04.995Z,4.08
2019-05-25T02:05:34.343Z,4.22
2019-05-25T02:08:03.786Z,3.75
2019-05-25T02:10:33.165Z,3.22
2019-05-25T02:13:02.513Z,3.20
2019-05-25T02:15:31.889Z,3.37
2019-05-25T02:18:01.243Z,3.77
2019-05-25T02:20:30.606Z,3.45
2019-05-25T02:23:00.065Z,3.42
2019-05-25T02:25:29.399Z,3.17
2019-05-25T02:27:58.791Z,3.42
2019-05-25T02:30:28.602Z,3.37
2019-05-25T02:32:58.036Z,3.35
2019-05-25T02:35:28.322Z,3.67
2019-05-25T02:37:58.040Z,2.85
2019-05-25T02:40:27.611Z,3.50
2019-05-25T02:42:57.397Z,3.40
2019-05-25T02:45:26.752Z,3.90
2019-05-25T02:47:56.085Z,3.50
2019-05-25T02:50:25.583Z,4.60
2019-05-25T02:52:54.957Z,4.72
2019-05-25T02:55:33.665Z,4.37
2019-05-25T02:57:55.619Z,4.23
2019-05-25T03:00:28.081Z,4.17
2019-05-25T03:02:57.662Z,4.72
2019-05-25T03:05:27.091Z,3.75
2019-05-25T03:07:58.071Z,4.35
2019-05-25T03:10:28.015Z,4.27
2019-05-25T03:12:57.464Z,4.87
2019-05-25T03:15:26.818Z,4.60
2019-05-25T03:17:56.248Z,3.67
2019-05-25T03:20:25.750Z,4.08
2019-05-25T03:22:55.130Z,4.25
2019-05-25T03:25:24.500Z,5.00
2019-05-25T03:27:56.722Z,3.95
2019-05-25T03:30:34.299Z,3.33
2019-05-25T03:33:03.867Z,3.80
2019-05-25T03:35:33.535Z,4.10
2019-05-25T03:38:02.903Z,3.95
2019-05-25T03:40:32.398Z,4.60
2019-05-25T03:43:01.838Z,4.10
2019-05-25T03:45:31.206Z,4.10
2019-05-25T03:48:00.550Z,4.20
2019-05-25T03:50:29.968Z,4.08
2019-05-25T03:52:59.338Z,4.65
2019-05-25T03:55:28.684Z,4.28
2019-05-25T03:57:58.887Z,4.70
2019-05-25T04:00:36.153Z,4.30
2019-05-25T04:03:06.525Z,4.08
2019-05-25T04:05:35.929Z,3.98
2019-05-25T04:08:06.210Z,4.60
2019-05-25T04:10:38.671Z,5.00
2019-05-25T04:13:06.615Z,4.60
2019-05-25T04:15:36.035Z,4.58
2019-05-25T04:18:05.495Z,4.62
2019-05-25T04:20:35.243Z,4.25
2019-05-25T04:23:04.615Z,3.80
2019-05-25T04:25:34.051Z,4.28
2019-05-25T04:28:03.396Z,5.03
2019-05-25T04:30:32.830Z,4.75
2019-05-25T04:33:03.218Z,4.55
2019-05-25T04:35:34.193Z,5.35
2019-05-25T04:38:03.573Z,5.15
2019-05-25T04:40:32.946Z,3.77
2019-05-25T04:43:02.398Z,4.28
2019-05-25T04:45:31.760Z,5.17
2019-05-25T04:48:01.100Z,5.12
2019-05-25T04:50:30.481Z,5.10
2019-05-25T04:53:01.378Z,4.65
2019-05-25T04:55:30.741Z,4.70
2019-05-25T04:58:01.640Z,4.55
2019-05-25T05:00:30.985Z,4.20
2019-05-25T05:03:01.584Z,4.65
2019-05-25T05:05:31.011Z,4.28
2019-05-25T05:08:00.369Z,4.35
2019-05-25T05:10:29.717Z,3.73
2019-05-25T05:12:59.154Z,4.35
2019-05-25T05:15:28.512Z,3.60
2019-05-25T05:17:57.874Z,4.33
2019-05-25T05:20:29.754Z,5.92
2019-05-25T05:22:59.163Z,5.80
2019-05-25T05:25:28.507Z,5.37
2019-05-25T05:27:57.912Z,4.60
2019-05-25T05:30:34.676Z,5.03
2019-05-25T05:33:04.180Z,4.25
2019-05-25T05:35:38.097Z,4.70
2019-05-25T05:38:06.534Z,4.08
2019-05-25T05:40:37.286Z,4.10
2019-05-25T05:43:10.777Z,6.30
2019-05-25T05:45:42.855Z,5.33
2019-05-25T05:48:12.890Z,4.53
2019-05-25T05:50:43.464Z,5.30
2019-05-25T05:53:12.971Z,4.30
2019-05-25T05:55:42.340Z,4.90
2019-05-25T05:58:11.693Z,4.78
2019-05-25T06:00:41.074Z,4.92
2019-05-25T06:03:10.455Z,4.87
2019-05-25T06:05:39.836Z,4.28
2019-05-25T06:08:09.198Z,4.47
2019-05-25T06:10:40.307Z,5.03
2019-05-25T06:13:09.670Z,4.72
2019-05-25T06:15:39.029Z,4.55
2019-05-25T06:18:08.397Z,4.75
2019-05-25T06:20:37.750Z,4.70
2019-05-25T06:23:11.525Z,4.47
2019-05-25T06:25:38.168Z,5.30
2019-05-25T06:28:07.612Z,4.85
2019-05-25T06:30:36.963Z,4.28
2019-05-25T06:33:06.314Z,4.22
2019-05-25T06:35:35.689Z,4.65
2019-05-25T06:38:05.679Z,4.44
2019-05-25T06:40:35.056Z,4.33
2019-05-25T06:43:05.570Z,4.67
2019-05-25T06:45:34.968Z,3.40
2019-05-25T06:48:04.587Z,4.80
2019-05-25T06:50:33.978Z,4.72
2019-05-25T06:53:03.483Z,3.65
2019-05-25T06:55:32.903Z,3.90
2019-05-25T06:58:02.369Z,6.17
2019-05-25T07:00:31.873Z,6.90
2019-05-25T07:03:01.422Z,4.62
2019-05-25T07:05:30.827Z,4.00
2019-05-25T07:08:00.245Z,4.37
2019-05-25T07:10:29.651Z,4.20
2019-05-25T07:12:59.011Z,4.20
2019-05-25T07:15:28.372Z,4.45
2019-05-25T07:17:57.765Z,4.58
2019-05-25T07:20:27.196Z,4.08
2019-05-25T07:22:56.577Z,3.90
2019-05-25T07:25:25.982Z,3.90
2019-05-25T07:27:59.508Z,4.00
2019-05-25T07:30:26.447Z,3.93
2019-05-25T07:32:55.898Z,3.27
2019-05-25T07:35:25.545Z,3.50
2019-05-25T07:37:55.044Z,3.65
2019-05-25T07:40:24.505Z,3.83
2019-05-25T07:42:54.924Z,3.70
2019-05-25T07:45:24.377Z,3.10
2019-05-25T07:47:53.779Z,4.22
2019-05-25T07:50:23.292Z,3.40
2019-05-25T07:52:52.710Z,3.00
2019-05-25T07:55:23.142Z,3.00
2019-05-25T07:57:52.500Z,3.30
2019-05-25T08:00:22.099Z,3.90
2019-05-25T08:02:51.537Z,3.17
2019-05-25T08:05:20.883Z,3.30
2019-05-25T08:07:50.366Z,3.20
2019-05-25T08:10:21.859Z,3.20
2019-05-25T08:12:51.229Z,4.40
2019-05-25T08:15:20.585Z,6.40
2019-05-25T08:17:49.931Z,3.62
2019-05-25T08:20:19.364Z,3.87
2019-05-25T08:22:49.959Z,3.27
2019-05-25T08:25:19.458Z,3.45
2019-05-25T08:27:48.890Z,2.83
2019-05-25T08:30:18.393Z,3.10
2019-05-25T08:32:47.887Z,3.20
2019-05-25T08:35:17.291Z,3.17
2019-05-25T08:37:46.733Z,3.12
2019-05-25T08:40:16.427Z,3.17
2019-05-25T08:42:45.869Z,3.58
2019-05-25T08:45:15.408Z,3.25
2019-05-25T08:47:44.774Z,3.25
2019-05-25T08:50:16.288Z,3.50
2019-05-25T08:52:45.495Z,3.45
2019-05-25T08:55:16.273Z,3.77
2019-05-25T08:57:45.623Z,2.87
2019-05-25T09:00:15.290Z,3.13
2019-05-25T09:02:44.658Z,6.35
2019-05-25T09:05:14.198Z,3.40
2019-05-25T09:07:43.683Z,3.42
2019-05-25T09:10:13.503Z,4.12
2019-05-25T09:12:42.954Z,4.20
2019-05-25T09:15:15.256Z,3.25
2019-05-25T09:17:44.620Z,4.25
2019-05-25T09:20:14.421Z,3.65
2019-05-25T09:22:43.976Z,3.90
2019-05-25T09:25:13.615Z,3.65
2019-05-25T09:27:43.044Z,3.40
2019-05-25T09:30:13.005Z,5.75
2019-05-25T09:32:42.340Z,4.33
2019-05-25T09:35:11.805Z,3.43
2019-05-25T09:37:41.242Z,3.65
2019-05-25T09:40:10.920Z,3.30
2019-05-25T09:42:40.567Z,3.60
2019-05-25T09:45:14.032Z,3.33
2019-05-25T09:47:43.007Z,3.00
2019-05-25T09:50:12.861Z,3.70
2019-05-25T09:52:42.340Z,6.90
2019-05-25T09:55:12.665Z,3.57
2019-05-25T09:57:42.148Z,3.10
2019-05-25T10:00:13.789Z,3.25
2019-05-25T10:02:43.821Z,2.50
2019-05-25T10:07:43.038Z,3.10
2019-05-25T10:10:13.138Z,3.27
2019-05-25T10:12:42.615Z,2.90
2019-05-25T10:15:12.309Z,2.58
2019-05-25T10:17:41.707Z,3.33
2019-05-25T10:20:11.638Z,3.00
2019-05-25T10:22:41.155Z,3.03
2019-05-25T10:25:14.010Z,2.50
2019-05-25T10:27:43.404Z,2.47
2019-05-25T10:30:13.076Z,2.70
2019-05-25T10:32:42.606Z,2.62
2019-05-25T10:35:13.547Z,2.23
2019-05-25T10:37:43.881Z,2.67
2019-05-25T10:40:13.692Z,2.52
2019-05-25T10:42:43.131Z,3.15
2019-05-25T10:45:13.820Z,2.85
2019-05-25T10:47:43.203Z,3.13
2019-05-25T10:50:15.813Z,2.70
2019-05-25T10:52:45.163Z,2.77
2019-05-25T10:55:15.059Z,3.10
2019-05-25T10:57:56.670Z,3.08
2019-05-25T11:00:26.223Z,3.60
2019-05-25T11:02:55.581Z,3.20
2019-05-25T11:05:25.020Z,2.67
2019-05-25T11:07:56.008Z,2.52
2019-05-25T11:10:25.492Z,2.47
2019-05-25T11:12:54.857Z,3.30
2019-05-25T11:15:25.277Z,2.57
2019-05-25T11:17:54.676Z,3.08
2019-05-25T11:20:24.535Z,2.93
2019-05-25T11:22:54.985Z,3.25
2019-05-25T11:25:27.339Z,3.47
2019-05-25T11:27:56.785Z,3.60
2019-05-25T11:30:26.289Z,2.90
2019-05-25T11:32:55.643Z,2.40
2019-05-25T11:35:25.160Z,3.33
2019-05-25T11:37:54.659Z,2.85
2019-05-25T11:40:25.027Z,2.47
2019-05-25T11:42:54.380Z,2.53
2019-05-25T11:45:24.264Z,2.43
2019-05-25T11:47:53.633Z,2.42
2019-05-25T11:50:23.213Z,1.90
2019-05-25T11:52:52.639Z,2.27
2019-05-25T11:55:22.223Z,2.02
2019-05-25T11:57:51.676Z,2.20
2019-05-25T12:00:25.472Z,2.10
2019-05-25T12:02:53.217Z,2.05
2019-05-25T12:05:22.689Z,1.77
2019-05-25T12:07:52.032Z,2.47
2019-05-25T12:10:21.545Z,3.40
2019-05-25T12:12:51.533Z,2.42
2019-05-25T12:15:21.081Z,1.98
2019-05-25T12:17:50.488Z,1.87
2019-05-25T12:20:20.071Z,1.47
2019-05-25T12:22:49.506Z,2.02
2019-05-25T12:25:18.939Z,2.95
2019-05-25T12:27:49.553Z,1.50
2019-05-25T12:30:19.936Z,1.85
2019-05-25T12:32:49.366Z,2.20
2019-05-25T12:35:19.385Z,2.70
2019-05-25T12:37:49.924Z,2.72
2019-05-25T12:40:19.634Z,2.27
2019-05-25T12:42:49.020Z,2.58
2019-05-25T12:45:18.444Z,2.87
2019-05-25T12:47:47.803Z,2.77
2019-05-25T12:50:18.771Z,2.67
2019-05-25T12:55:16.777Z,2.77
2019-05-25T12:57:46.153Z,3.08
2019-05-25T13:00:16.759Z,3.20
2019-05-25T13:02:46.429Z,3.67
2019-05-25T13:05:15.849Z,2.92
2019-05-25T13:07:45.274Z,3.45
2019-05-25T13:10:15.182Z,3.03
2019-05-25T13:12:44.555Z,3.50
2019-05-25T13:15:14.139Z,3.25
2019-05-25T13:17:43.597Z,3.02
2019-05-25T13:20:13.775Z,3.60
2019-05-25T13:22:43.544Z,3.37
2019-05-25T13:25:13.052Z,3.27
2019-05-25T13:27:42.632Z,3.33
2019-05-25T13:30:12.631Z,3.25
2019-05-25T13:32:42.086Z,3.00
2019-05-25T13:35:11.941Z,2.93
2019-05-25T13:37:41.387Z,2.87
2019-05-25T13:40:11.194Z,3.55
2019-05-25T13:42:40.540Z,2.83
2019-05-25T13:45:10.111Z,2.60
2019-05-25T13:47:39.535Z,3.45
2019-05-25T13:50:10.055Z,3.12
2019-05-25T13:52:39.399Z,2.90
2019-05-25T13:55:11.086Z,3.40
2019-05-25T13:57:40.233Z,2.98
2019-05-25T14:00:10.221Z,3.17
2019-05-25T14:02:39.642Z,3.40
2019-05-25T14:05:09.388Z,2.92
2019-05-25T14:07:39.839Z,3.80
2019-05-25T14:10:10.031Z,3.20
2019-05-25T14:12:40.963Z,3.10
2019-05-25T14:15:11.148Z,3.47
2019-05-25T14:17:40.596Z,2.85
2019-05-25T14:20:10.469Z,2.70
2019-05-25T14:22:39.911Z,2.95
2019-05-25T14:25:09.878Z,2.50
2019-05-25T14:27:39.365Z,3.25
2019-05-25T14:30:10.703Z,2.37
2019-05-25T14:32:40.057Z,2.67
2019-05-25T14:35:09.564Z,2.47
2019-05-25T14:37:38.926Z,1.67
2019-05-25T14:40:11.414Z,2.10
2019-05-25T14:42:40.264Z,2.93
2019-05-25T14:45:11.947Z,2.33
2019-05-25T14:50:10.472Z,2.10
2019-05-25T14:52:43.062Z,2.20
2019-05-25T14:55:11.076Z,1.77
2019-05-25T14:57:40.517Z,1.67
2019-05-25T15:00:11.989Z,1.77
2019-05-25T15:02:41.484Z,2.67
2019-05-25T15:05:10.982Z,3.10
2019-05-25T15:07:40.363Z,4.00
2019-05-25T15:10:10.457Z,4.20
2019-05-25T15:12:39.927Z,3.97
2019-05-25T15:15:09.918Z,2.95
2019-05-25T15:17:42.363Z,2.07
2019-05-25T15:20:10.985Z,1.96
2019-05-25T15:22:40.855Z,3.00
2019-05-25T15:25:10.519Z,4.17
2019-05-25T15:27:39.893Z,4.40
2019-05-25T15:30:09.694Z,4.08
2019-05-25T15:32:41.982Z,4.78
2019-05-25T15:35:11.607Z,4.60
2019-05-25T15:37:40.959Z,4.47
2019-05-25T15:40:11.371Z,4.64
2019-05-25T15:42:48.499Z,4.70
2019-05-25T15:45:17.958Z,3.77
2019-05-25T15:47:47.381Z,4.65
2019-05-25T15:50:18.729Z,4.07
2019-05-25T15:55:17.351Z,3.27
2019-05-25T15:57:48.248Z,3.77
2019-05-25T16:00:18.402Z,4.23
2019-05-25T16:02:47.928Z,3.37
2019-05-25T16:05:18.576Z,5.23
2019-05-25T16:07:50.740Z,4.70
2019-05-25T16:10:20.108Z,4.03
2019-05-25T16:12:49.545Z,5.22
2019-05-25T16:15:22.016Z,5.07
2019-05-25T16:17:51.404Z,4.77
2019-05-25T16:20:22.580Z,4.00
2019-05-25T16:22:52.004Z,4.35
2019-05-25T16:25:21.369Z,5.07
2019-05-25T16:27:50.784Z,3.98
2019-05-25T16:30:20.295Z,3.67
2019-05-25T16:35:20.830Z,5.30
2019-05-25T16:37:50.531Z,4.10
2019-05-25T16:40:20.627Z,4.07
2019-05-25T16:42:50.096Z,3.90
2019-05-25T16:45:19.920Z,3.90
2019-05-25T16:47:49.340Z,3.27
2019-05-25T16:50:19.159Z,3.10
2019-05-25T16:52:48.679Z,3.30
2019-05-25T16:55:18.211Z,4.10
2019-05-25T16:57:49.223Z,4.72
2019-05-25T17:00:27.004Z,4.33
2019-05-25T17:02:57.770Z,6.85
2019-05-25T17:05:27.787Z,6.60
2019-05-25T17:07:57.277Z,6.25
2019-05-25T17:10:26.767Z,5.55
2019-05-25T17:12:56.120Z,5.28
2019-05-25T17:15:25.566Z,4.57
2019-05-25T17:17:57.895Z,4.75
2019-05-25T17:20:27.263Z,4.55
2019-05-25T17:22:56.599Z,4.83
2019-05-25T17:25:25.966Z,4.95
2019-05-25T17:27:55.421Z,5.10
2019-05-25T17:30:36.554Z,4.72
2019-05-25T17:33:06.062Z,5.55
2019-05-25T17:35:35.403Z,4.87
2019-05-25T17:38:05.969Z,5.67
2019-05-25T17:40:35.381Z,5.72
2019-05-25T17:43:05.488Z,5.08
2019-05-25T17:45:34.928Z,6.55
2019-05-25T17:48:04.528Z,5.58
2019-05-25T17:50:33.882Z,5.80
2019-05-25T17:53:03.329Z,5.60
2019-05-25T17:55:32.720Z,5.72
2019-05-25T17:58:02.153Z,5.95
2019-05-25T18:00:43.377Z,5.70
2019-05-25T18:03:12.902Z,5.60
2019-05-25T18:05:42.387Z,5.95
2019-05-25T18:08:12.496Z,6.63
2019-05-25T18:10:52.648Z,7.03
2019-05-25T18:13:16.465Z,7.45
2019-05-25T18:15:45.923Z,7.25
2019-05-25T18:18:15.359Z,6.80
2019-05-25T18:20:44.756Z,6.53
2019-05-25T18:23:36.811Z,6.70
2019-05-25T18:28:34.751Z,5.65
2019-05-25T18:31:04.100Z,7.08
2019-05-25T18:33:33.540Z,6.58
2019-05-25T18:36:04.512Z,6.95
2019-05-25T18:38:33.928Z,7.00
2019-05-25T18:41:03.413Z,6.20
2019-05-25T18:43:32.824Z,6.22
2019-05-25T18:46:04.463Z,5.97
2019-05-25T18:48:38.493Z,6.67
2019-05-25T18:51:12.379Z,6.07
2019-05-25T18:53:41.758Z,7.00
2019-05-25T18:56:11.129Z,7.17
2019-05-25T18:58:40.526Z,6.78
2019-05-25T19:01:09.949Z,7.12
2019-05-25T19:03:39.305Z,7.05
2019-05-25T19:06:08.677Z,6.97
2019-05-25T19:08:38.102Z,6.83
2019-05-25T19:11:07.464Z,7.17
2019-05-25T19:13:36.843Z,6.95
2019-05-25T19:16:06.357Z,7.45
2019-05-25T19:18:35.725Z,7.40
2019-05-25T19:21:05.651Z,8.28
2019-05-25T19:23:36.984Z,7.60
2019-05-25T19:26:06.349Z,7.20
2019-05-25T19:28:35.792Z,8.33
2019-05-25T19:31:05.482Z,7.78
2019-05-25T19:33:34.857Z,8.15
2019-05-25T19:36:05.507Z,8.43
2019-05-25T19:38:35.143Z,7.73
2019-05-25T19:41:04.579Z,8.45
2019-05-25T19:43:33.946Z,9.83
2019-05-25T19:46:03.329Z,8.58
2019-05-25T19:48:32.675Z,8.37
2019-05-25T19:51:02.040Z,9.13
2019-05-25T19:53:31.488Z,8.10
2019-05-25T19:56:00.923Z,9.65
2019-05-25T19:58:30.282Z,9.35
2019-05-25T20:00:59.652Z,9.10
2019-05-25T20:03:29.077Z,8.68
2019-05-25T20:05:58.445Z,9.08
2019-05-25T20:08:27.954Z,8.70
2019-05-25T20:10:57.470Z,9.05
2019-05-25T20:13:39.325Z,8.63
2019-05-25T20:16:08.797Z,8.95
2019-05-25T20:18:38.229Z,9.93
2019-05-25T20:21:07.664Z,10.35
2019-05-25T20:23:38.112Z,10.43
2019-05-25T20:26:07.555Z,8.60
2019-05-25T20:28:37.072Z,9.20
2019-05-25T20:31:06.496Z,9.63
2019-05-25T20:33:35.945Z,9.15
2019-05-25T20:36:05.436Z,9.53
2019-05-25T20:38:34.871Z,9.68
2019-05-25T20:41:04.292Z,9.98
2019-05-25T20:43:36.188Z,10.00
2019-05-25T20:46:05.529Z,9.43
2019-05-25T20:48:34.895Z,9.68
2019-05-25T20:51:04.344Z,9.00
2019-05-25T20:53:33.872Z,9.20
2019-05-25T20:56:05.276Z,10.32
2019-05-25T20:58:34.696Z,10.10
2019-05-25T21:01:04.125Z,10.18
2019-05-25T21:03:33.585Z,10.72
2019-05-25T21:06:02.944Z,10.53
2019-05-25T21:08:32.309Z,10.38
2019-05-25T21:11:01.832Z,10.35
2019-05-25T21:13:31.224Z,10.13
2019-05-25T21:16:00.595Z,10.28
2019-05-25T21:18:30.000Z,10.10
2019-05-25T21:20:59.379Z,9.68
2019-05-25T21:23:28.802Z,9.85
2019-05-25T21:25:58.314Z,10.30
2019-05-25T21:28:28.838Z,9.53
2019-05-25T21:30:58.446Z,10.30
2019-05-25T21:33:27.832Z,9.85
2019-05-25T21:36:07.799Z,10.70
2019-05-25T21:38:29.362Z,10.80
2019-05-25T21:41:01.581Z,8.65
2019-05-25T21:43:32.004Z,8.58
2019-05-25T21:46:01.365Z,7.03
2019-05-25T21:48:31.748Z,7.90
2019-05-25T21:51:01.105Z,8.10
2019-05-25T21:53:30.461Z,6.92
2019-05-25T21:55:59.827Z,6.65
2019-05-25T21:58:29.205Z,8.38
2019-05-25T22:00:58.753Z,8.30
2019-05-25T22:03:29.727Z,7.50
2019-05-25T22:05:59.094Z,7.05
2019-05-25T22:08:28.523Z,7.70
2019-05-25T22:10:57.882Z,7.35
2019-05-25T22:13:28.924Z,7.20
2019-05-25T22:15:58.307Z,7.10
2019-05-25T22:18:27.661Z,6.62
2019-05-25T22:20:57.117Z,7.62
2019-05-25T22:23:26.768Z,6.83
2019-05-25T22:25:56.207Z,7.12
2019-05-25T22:28:25.594Z,8.60
2019-05-25T22:30:55.935Z,7.65
2019-05-25T22:33:26.515Z,7.45
2019-05-25T22:35:56.075Z,7.23
2019-05-25T22:38:26.616Z,8.25
2019-05-25T22:40:55.983Z,7.15
2019-05-25T22:43:25.350Z,8.00
2019-05-25T22:45:54.740Z,7.65
2019-05-25T22:48:24.127Z,9.00
2019-05-25T22:50:59.303Z,8.63
2019-05-25T22:53:29.787Z,8.28
2019-05-25T22:55:59.576Z,9.00
2019-05-25T22:58:28.942Z,9.60
2019-05-25T23:00:58.336Z,8.93
2019-05-25T23:03:27.984Z,10.75
2019-05-25T23:05:57.322Z,8.73
2019-05-25T23:08:26.708Z,9.58
2019-05-25T23:10:56.078Z,10.48
2019-05-25T23:13:28.027Z,12.45
2019-05-25T23:15:57.408Z,11.55
2019-05-25T23:18:26.854Z,12.15
2019-05-25T23:20:56.271Z,10.58
2019-05-25T23:23:25.664Z,12.33
2019-05-25T23:25:55.006Z,12.73
2019-05-25T23:28:24.436Z,11.60
2019-05-25T23:30:53.910Z,13.40
2019-05-25T23:33:23.261Z,11.55
2019-05-25T23:35:52.616Z,11.90
2019-05-25T23:38:22.014Z,11.23
2019-05-25T23:40:51.417Z,11.95
2019-05-25T23:43:20.831Z,13.30
2019-05-25T23:45:50.274Z,12.07
2019-05-25T23:48:19.644Z,11.08
2019-05-25T23:50:49.000Z,11.65
2019-05-25T23:53:18.430Z,11.93
2019-05-25T23:55:48.855Z,12.27
2019-05-25T23:58:18.204Z,13.03
